sensor_id;sensor_type;location;lat;lon;timestamp;P1;durP1;ratioP1;P2;durP2;ratioP2
31990;SDS011;18508;49.386;8.370;2022-12-20T00:01:51;44.17;;;22.35;;
31990;SDS011;18508;49.386;8.370;2022-12-20T00:04:20;43.58;;;22.33;;
31990;SDS011;18508;49.386;8.370;2022-12-20T00:06:48;43.00;;;21.58;;
31990;SDS011;18508;49.386;8.370;2022-12-20T00:09:16;45.38;;;22.13;;
31990;SDS011;18508;49.386;8.370;2022-12-20T00:11:44;44.38;;;21.35;;
31990;SDS011;18508;49.386;8.370;2022-12-20T00:14:15;39.15;;;20.80;;
31990;SDS011;18508;49.386;8.370;2022-12-20T00:16:43;45.65;;;21.20;;
31990;SDS011;18508;49.386;8.370;2022-12-20T00:19:12;47.15;;;20.73;;
31990;SDS011;18508;49.386;8.370;2022-12-20T00:21:40;42.35;;;21.38;;
31990;SDS011;18508;49.386;8.370;2022-12-20T00:24:09;38.65;;;19.67;;
31990;SDS011;18508;49.386;8.370;2022-12-20T00:26:37;45.70;;;20.45;;
31990;SDS011;18508;49.386;8.370;2022-12-20T00:29:05;41.92;;;20.33;;
31990;SDS011;18508;49.386;8.370;2022-12-20T00:31:35;43.80;;;20.52;;
31990;SDS011;18508;49.386;8.370;2022-12-20T00:34:04;46.60;;;21.15;;
31990;SDS011;18508;49.386;8.370;2022-12-20T00:36:32;47.85;;;20.15;;
31990;SDS011;18508;49.386;8.370;2022-12-20T00:39:00;37.78;;;19.05;;
31990;SDS011;18508;49.386;8.370;2022-12-20T00:41:29;41.13;;;19.23;;
31990;SDS011;18508;49.386;8.370;2022-12-20T00:44:00;44.00;;;20.58;;
31990;SDS011;18508;49.386;8.370;2022-12-20T00:46:29;40.08;;;20.15;;
31990;SDS011;18508;49.386;8.370;2022-12-20T00:49:01;41.70;;;20.50;;
31990;SDS011;18508;49.386;8.370;2022-12-20T00:51:29;41.15;;;21.00;;
31990;SDS011;18508;49.386;8.370;2022-12-20T00:53:58;41.42;;;19.73;;
31990;SDS011;18508;49.386;8.370;2022-12-20T00:56:27;42.92;;;21.25;;
31990;SDS011;18508;49.386;8.370;2022-12-20T00:58:56;37.90;;;19.73;;
31990;SDS011;18508;49.386;8.370;2022-12-20T01:01:27;44.50;;;20.52;;
31990;SDS011;18508;49.386;8.370;2022-12-20T01:04:01;46.92;;;20.40;;
31990;SDS011;18508;49.386;8.370;2022-12-20T01:06:30;39.85;;;19.80;;
31990;SDS011;18508;49.386;8.370;2022-12-20T01:08:59;41.83;;;18.92;;
31990;SDS011;18508;49.386;8.370;2022-12-20T01:11:28;45.65;;;21.27;;
31990;SDS011;18508;49.386;8.370;2022-12-20T01:13:59;40.63;;;19.92;;
31990;SDS011;18508;49.386;8.370;2022-12-20T01:16:30;42.92;;;20.13;;
31990;SDS011;18508;49.386;8.370;2022-12-20T01:18:59;43.67;;;20.70;;
31990;SDS011;18508;49.386;8.370;2022-12-20T01:21:30;44.88;;;20.52;;
31990;SDS011;18508;49.386;8.370;2022-12-20T01:24:02;41.33;;;19.92;;
31990;SDS011;18508;49.386;8.370;2022-12-20T01:26:30;40.72;;;19.40;;
31990;SDS011;18508;49.386;8.370;2022-12-20T01:28:59;40.78;;;19.60;;
31990;SDS011;18508;49.386;8.370;2022-12-20T01:31:28;41.78;;;20.10;;
31990;SDS011;18508;49.386;8.370;2022-12-20T01:33:57;38.58;;;19.80;;
31990;SDS011;18508;49.386;8.370;2022-12-20T01:36:27;39.85;;;18.92;;
31990;SDS011;18508;49.386;8.370;2022-12-20T01:39:05;39.70;;;19.08;;
31990;SDS011;18508;49.386;8.370;2022-12-20T01:41:35;37.17;;;18.95;;
31990;SDS011;18508;49.386;8.370;2022-12-20T01:44:05;36.47;;;19.77;;
31990;SDS011;18508;49.386;8.370;2022-12-20T01:46:54;37.67;;;18.83;;
31990;SDS011;18508;49.386;8.370;2022-12-20T01:49:23;39.20;;;19.83;;
31990;SDS011;18508;49.386;8.370;2022-12-20T01:51:57;38.72;;;20.73;;
31990;SDS011;18508;49.386;8.370;2022-12-20T01:54:30;40.35;;;18.60;;
31990;SDS011;18508;49.386;8.370;2022-12-20T01:57:03;38.20;;;18.42;;
31990;SDS011;18508;49.386;8.370;2022-12-20T01:59:34;38.83;;;18.70;;
31990;SDS011;18508;49.386;8.370;2022-12-20T02:02:07;35.75;;;17.27;;
31990;SDS011;18508;49.386;8.370;2022-12-20T02:04:39;42.30;;;18.73;;
31990;SDS011;18508;49.386;8.370;2022-12-20T02:07:10;34.03;;;17.92;;
31990;SDS011;18508;49.386;8.370;2022-12-20T02:09:43;37.17;;;18.92;;
31990;SDS011;18508;49.386;8.370;2022-12-20T02:12:13;33.00;;;17.75;;
31990;SDS011;18508;49.386;8.370;2022-12-20T02:14:49;33.13;;;17.45;;
31990;SDS011;18508;49.386;8.370;2022-12-20T02:17:29;33.10;;;17.88;;
31990;SDS011;18508;49.386;8.370;2022-12-20T02:20:21;40.10;;;18.48;;
31990;SDS011;18508;49.386;8.370;2022-12-20T02:23:28;35.40;;;17.80;;
31990;SDS011;18508;49.386;8.370;2022-12-20T02:26:27;37.25;;;18.58;;
31990;SDS011;18508;49.386;8.370;2022-12-20T02:29:24;34.15;;;17.05;;
31990;SDS011;18508;49.386;8.370;2022-12-20T02:32:03;34.83;;;17.98;;
31990;SDS011;18508;49.386;8.370;2022-12-20T02:34:38;37.03;;;18.63;;
31990;SDS011;18508;49.386;8.370;2022-12-20T02:37:07;39.72;;;17.58;;
31990;SDS011;18508;49.386;8.370;2022-12-20T02:39:36;34.30;;;17.23;;
31990;SDS011;18508;49.386;8.370;2022-12-20T02:42:08;34.80;;;17.73;;
31990;SDS011;18508;49.386;8.370;2022-12-20T02:44:40;35.00;;;17.35;;
31990;SDS011;18508;49.386;8.370;2022-12-20T02:47:33;34.22;;;17.35;;
31990;SDS011;18508;49.386;8.370;2022-12-20T02:50:06;38.55;;;17.98;;
31990;SDS011;18508;49.386;8.370;2022-12-20T02:52:39;43.38;;;21.42;;
31990;SDS011;18508;49.386;8.370;2022-12-20T02:55:08;49.97;;;23.73;;
31990;SDS011;18508;49.386;8.370;2022-12-20T02:57:41;53.90;;;26.85;;
31990;SDS011;18508;49.386;8.370;2022-12-20T03:00:20;58.10;;;27.58;;
31990;SDS011;18508;49.386;8.370;2022-12-20T03:02:50;55.85;;;29.00;;
31990;SDS011;18508;49.386;8.370;2022-12-20T03:05:37;49.30;;;27.02;;
31990;SDS011;18508;49.386;8.370;2022-12-20T03:08:15;58.78;;;28.65;;
31990;SDS011;18508;49.386;8.370;2022-12-20T03:10:43;49.47;;;26.27;;
31990;SDS011;18508;49.386;8.370;2022-12-20T03:13:11;53.55;;;27.60;;
31990;SDS011;18508;49.386;8.370;2022-12-20T03:15:39;49.55;;;27.13;;
31990;SDS011;18508;49.386;8.370;2022-12-20T03:18:09;51.38;;;26.73;;
31990;SDS011;18508;49.386;8.370;2022-12-20T03:20:38;59.67;;;28.60;;
31990;SDS011;18508;49.386;8.370;2022-12-20T03:23:07;54.95;;;27.45;;
31990;SDS011;18508;49.386;8.370;2022-12-20T03:25:38;54.92;;;27.45;;
31990;SDS011;18508;49.386;8.370;2022-12-20T03:28:07;54.50;;;27.73;;
31990;SDS011;18508;49.386;8.370;2022-12-20T03:30:34;57.15;;;29.05;;
31990;SDS011;18508;49.386;8.370;2022-12-20T03:33:03;53.72;;;27.60;;
31990;SDS011;18508;49.386;8.370;2022-12-20T03:35:33;53.92;;;27.10;;
31990;SDS011;18508;49.386;8.370;2022-12-20T03:38:01;61.08;;;29.08;;
31990;SDS011;18508;49.386;8.370;2022-12-20T03:40:31;54.40;;;28.60;;
31990;SDS011;18508;49.386;8.370;2022-12-20T03:43:00;57.95;;;28.00;;
31990;SDS011;18508;49.386;8.370;2022-12-20T03:45:28;55.15;;;28.58;;
31990;SDS011;18508;49.386;8.370;2022-12-20T03:47:59;54.13;;;26.75;;
31990;SDS011;18508;49.386;8.370;2022-12-20T03:50:27;52.17;;;26.52;;
31990;SDS011;18508;49.386;8.370;2022-12-20T03:52:58;41.97;;;21.95;;
31990;SDS011;18508;49.386;8.370;2022-12-20T03:55:26;39.53;;;19.95;;
31990;SDS011;18508;49.386;8.370;2022-12-20T03:57:54;39.53;;;18.33;;
31990;SDS011;18508;49.386;8.370;2022-12-20T04:00:22;34.45;;;17.58;;
31990;SDS011;18508;49.386;8.370;2022-12-20T04:02:51;37.53;;;17.55;;
31990;SDS011;18508;49.386;8.370;2022-12-20T04:05:19;36.03;;;17.60;;
31990;SDS011;18508;49.386;8.370;2022-12-20T04:07:50;31.75;;;16.67;;
31990;SDS011;18508;49.386;8.370;2022-12-20T04:10:22;31.00;;;16.42;;
31990;SDS011;18508;49.386;8.370;2022-12-20T04:12:50;30.80;;;15.23;;
31990;SDS011;18508;49.386;8.370;2022-12-20T04:15:18;29.85;;;15.60;;
31990;SDS011;18508;49.386;8.370;2022-12-20T04:17:51;26.63;;;15.05;;
31990;SDS011;18508;49.386;8.370;2022-12-20T04:20:19;28.92;;;16.08;;
31990;SDS011;18508;49.386;8.370;2022-12-20T04:22:47;31.95;;;15.02;;
31990;SDS011;18508;49.386;8.370;2022-12-20T04:25:17;29.88;;;13.93;;
31990;SDS011;18508;49.386;8.370;2022-12-20T04:27:48;29.15;;;15.57;;
31990;SDS011;18508;49.386;8.370;2022-12-20T04:30:16;28.48;;;14.20;;
31990;SDS011;18508;49.386;8.370;2022-12-20T04:32:46;28.88;;;15.20;;
31990;SDS011;18508;49.386;8.370;2022-12-20T04:35:14;24.95;;;15.07;;
31990;SDS011;18508;49.386;8.370;2022-12-20T04:37:43;28.88;;;16.00;;
31990;SDS011;18508;49.386;8.370;2022-12-20T04:40:12;31.88;;;16.48;;
31990;SDS011;18508;49.386;8.370;2022-12-20T04:42:44;29.17;;;15.85;;
31990;SDS011;18508;49.386;8.370;2022-12-20T04:45:14;31.40;;;15.25;;
31990;SDS011;18508;49.386;8.370;2022-12-20T04:47:42;30.15;;;15.25;;
31990;SDS011;18508;49.386;8.370;2022-12-20T04:50:11;30.02;;;15.70;;
31990;SDS011;18508;49.386;8.370;2022-12-20T04:52:39;25.95;;;14.73;;
31990;SDS011;18508;49.386;8.370;2022-12-20T04:55:24;29.42;;;15.80;;
31990;SDS011;18508;49.386;8.370;2022-12-20T04:57:52;29.25;;;15.18;;
31990;SDS011;18508;49.386;8.370;2022-12-20T05:00:32;29.95;;;16.15;;
31990;SDS011;18508;49.386;8.370;2022-12-20T05:03:01;27.95;;;14.65;;
31990;SDS011;18508;49.386;8.370;2022-12-20T05:09:18;29.60;;;14.73;;
31990;SDS011;18508;49.386;8.370;2022-12-20T05:11:46;30.08;;;14.60;;
31990;SDS011;18508;49.386;8.370;2022-12-20T05:14:14;27.00;;;15.38;;
31990;SDS011;18508;49.386;8.370;2022-12-20T05:16:45;26.98;;;15.40;;
31990;SDS011;18508;49.386;8.370;2022-12-20T05:19:13;30.10;;;16.65;;
31990;SDS011;18508;49.386;8.370;2022-12-20T05:21:42;31.33;;;16.48;;
31990;SDS011;18508;49.386;8.370;2022-12-20T05:24:29;30.70;;;17.35;;
31990;SDS011;18508;49.386;8.370;2022-12-20T05:27:15;31.17;;;18.25;;
31990;SDS011;18508;49.386;8.370;2022-12-20T05:29:43;38.58;;;23.90;;
31990;SDS011;18508;49.386;8.370;2022-12-20T05:32:14;36.88;;;22.90;;
31990;SDS011;18508;49.386;8.370;2022-12-20T05:34:42;31.48;;;19.67;;
31990;SDS011;18508;49.386;8.370;2022-12-20T05:37:10;26.70;;;16.80;;
31990;SDS011;18508;49.386;8.370;2022-12-20T05:39:38;29.70;;;17.23;;
31990;SDS011;18508;49.386;8.370;2022-12-20T05:42:08;28.58;;;15.13;;
31990;SDS011;18508;49.386;8.370;2022-12-20T05:44:36;27.85;;;14.77;;
31990;SDS011;18508;49.386;8.370;2022-12-20T05:47:04;29.77;;;15.38;;
31990;SDS011;18508;49.386;8.370;2022-12-20T05:49:34;28.65;;;15.23;;
31990;SDS011;18508;49.386;8.370;2022-12-20T05:52:05;28.57;;;15.13;;
31990;SDS011;18508;49.386;8.370;2022-12-20T05:54:34;28.33;;;15.32;;
31990;SDS011;18508;49.386;8.370;2022-12-20T05:57:02;30.65;;;15.13;;
31990;SDS011;18508;49.386;8.370;2022-12-20T05:59:31;28.45;;;15.55;;
31990;SDS011;18508;49.386;8.370;2022-12-20T06:02:04;29.50;;;15.32;;
31990;SDS011;18508;49.386;8.370;2022-12-20T06:04:34;24.35;;;14.40;;
31990;SDS011;18508;49.386;8.370;2022-12-20T06:07:03;32.30;;;16.08;;
31990;SDS011;18508;49.386;8.370;2022-12-20T06:09:32;27.80;;;15.07;;
31990;SDS011;18508;49.386;8.370;2022-12-20T06:12:00;30.38;;;15.45;;
31990;SDS011;18508;49.386;8.370;2022-12-20T06:14:28;27.83;;;14.65;;
31990;SDS011;18508;49.386;8.370;2022-12-20T06:16:57;29.58;;;16.58;;
31990;SDS011;18508;49.386;8.370;2022-12-20T06:19:25;28.63;;;14.52;;
31990;SDS011;18508;49.386;8.370;2022-12-20T06:21:56;30.52;;;15.35;;
31990;SDS011;18508;49.386;8.370;2022-12-20T06:24:26;31.48;;;15.20;;
31990;SDS011;18508;49.386;8.370;2022-12-20T06:26:55;25.83;;;14.60;;
31990;SDS011;18508;49.386;8.370;2022-12-20T06:29:23;24.83;;;15.45;;
31990;SDS011;18508;49.386;8.370;2022-12-20T06:31:53;29.30;;;15.63;;
31990;SDS011;18508;49.386;8.370;2022-12-20T06:34:22;29.13;;;15.35;;
31990;SDS011;18508;49.386;8.370;2022-12-20T06:36:50;26.52;;;14.77;;
31990;SDS011;18508;49.386;8.370;2022-12-20T06:39:21;32.67;;;15.88;;
31990;SDS011;18508;49.386;8.370;2022-12-20T06:41:49;34.45;;;16.67;;
31990;SDS011;18508;49.386;8.370;2022-12-20T06:44:17;30.17;;;15.68;;
31990;SDS011;18508;49.386;8.370;2022-12-20T06:46:45;31.83;;;16.42;;
31990;SDS011;18508;49.386;8.370;2022-12-20T06:49:15;33.38;;;17.15;;
31990;SDS011;18508;49.386;8.370;2022-12-20T06:51:43;31.33;;;16.20;;
31990;SDS011;18508;49.386;8.370;2022-12-20T06:54:11;29.05;;;15.30;;
31990;SDS011;18508;49.386;8.370;2022-12-20T06:56:40;31.40;;;16.80;;
31990;SDS011;18508;49.386;8.370;2022-12-20T06:59:08;27.00;;;16.10;;
31990;SDS011;18508;49.386;8.370;2022-12-20T07:01:37;32.60;;;15.77;;
31990;SDS011;18508;49.386;8.370;2022-12-20T07:04:05;29.90;;;16.27;;
31990;SDS011;18508;49.386;8.370;2022-12-20T07:06:33;30.67;;;15.32;;
31990;SDS011;18508;49.386;8.370;2022-12-20T07:09:02;34.05;;;16.65;;
31990;SDS011;18508;49.386;8.370;2022-12-20T07:11:30;30.30;;;16.90;;
31990;SDS011;18508;49.386;8.370;2022-12-20T07:13:59;38.90;;;17.08;;
31990;SDS011;18508;49.386;8.370;2022-12-20T07:16:27;33.10;;;17.02;;
31990;SDS011;18508;49.386;8.370;2022-12-20T07:18:57;33.80;;;17.92;;
31990;SDS011;18508;49.386;8.370;2022-12-20T07:21:28;44.33;;;20.42;;
31990;SDS011;18508;49.386;8.370;2022-12-20T07:23:57;45.55;;;22.23;;
31990;SDS011;18508;49.386;8.370;2022-12-20T07:26:25;46.90;;;23.55;;
31990;SDS011;18508;49.386;8.370;2022-12-20T07:28:54;40.38;;;21.85;;
31990;SDS011;18508;49.386;8.370;2022-12-20T07:31:23;37.97;;;20.55;;
31990;SDS011;18508;49.386;8.370;2022-12-20T07:33:52;33.95;;;18.88;;
31990;SDS011;18508;49.386;8.370;2022-12-20T07:36:20;41.42;;;19.58;;
31990;SDS011;18508;49.386;8.370;2022-12-20T07:38:50;33.45;;;18.35;;
31990;SDS011;18508;49.386;8.370;2022-12-20T07:41:18;32.78;;;16.80;;
31990;SDS011;18508;49.386;8.370;2022-12-20T07:43:46;34.10;;;16.55;;
31990;SDS011;18508;49.386;8.370;2022-12-20T07:46:15;37.90;;;17.50;;
31990;SDS011;18508;49.386;8.370;2022-12-20T07:48:47;40.05;;;18.85;;
31990;SDS011;18508;49.386;8.370;2022-12-20T07:51:16;35.15;;;17.85;;
31990;SDS011;18508;49.386;8.370;2022-12-20T07:53:47;29.38;;;15.48;;
31990;SDS011;18508;49.386;8.370;2022-12-20T07:56:18;25.98;;;14.43;;
31990;SDS011;18508;49.386;8.370;2022-12-20T07:58:50;36.78;;;18.77;;
31990;SDS011;18508;49.386;8.370;2022-12-20T08:01:26;35.53;;;17.52;;
31990;SDS011;18508;49.386;8.370;2022-12-20T08:04:03;48.08;;;22.77;;
31990;SDS011;18508;49.386;8.370;2022-12-20T08:06:35;51.30;;;23.92;;
31990;SDS011;18508;49.386;8.370;2022-12-20T08:09:06;44.47;;;22.48;;
31990;SDS011;18508;49.386;8.370;2022-12-20T08:11:39;38.88;;;19.48;;
31990;SDS011;18508;49.386;8.370;2022-12-20T08:14:09;32.15;;;16.52;;
31990;SDS011;18508;49.386;8.370;2022-12-20T08:16:38;30.73;;;16.13;;
31990;SDS011;18508;49.386;8.370;2022-12-20T08:19:10;29.25;;;15.20;;
31990;SDS011;18508;49.386;8.370;2022-12-20T08:21:38;28.05;;;14.50;;
31990;SDS011;18508;49.386;8.370;2022-12-20T08:24:08;29.75;;;16.30;;
31990;SDS011;18508;49.386;8.370;2022-12-20T08:26:37;25.35;;;13.90;;
31990;SDS011;18508;49.386;8.370;2022-12-20T08:29:07;27.33;;;14.93;;
31990;SDS011;18508;49.386;8.370;2022-12-20T08:31:36;25.67;;;14.73;;
31990;SDS011;18508;49.386;8.370;2022-12-20T08:34:16;27.17;;;14.07;;
31990;SDS011;18508;49.386;8.370;2022-12-20T08:36:44;27.58;;;14.18;;
31990;SDS011;18508;49.386;8.370;2022-12-20T08:39:13;31.13;;;15.32;;
31990;SDS011;18508;49.386;8.370;2022-12-20T08:41:41;26.88;;;15.05;;
31990;SDS011;18508;49.386;8.370;2022-12-20T08:44:10;27.70;;;14.73;;
31990;SDS011;18508;49.386;8.370;2022-12-20T08:46:38;24.50;;;14.07;;
31990;SDS011;18508;49.386;8.370;2022-12-20T08:49:06;26.08;;;14.27;;
31990;SDS011;18508;49.386;8.370;2022-12-20T08:51:36;31.67;;;15.60;;
31990;SDS011;18508;49.386;8.370;2022-12-20T08:54:04;29.92;;;14.73;;
31990;SDS011;18508;49.386;8.370;2022-12-20T08:56:33;28.17;;;14.73;;
31990;SDS011;18508;49.386;8.370;2022-12-20T08:59:02;27.58;;;14.50;;
31990;SDS011;18508;49.386;8.370;2022-12-20T09:01:30;27.65;;;14.75;;
31990;SDS011;18508;49.386;8.370;2022-12-20T09:04:00;26.35;;;14.70;;
31990;SDS011;18508;49.386;8.370;2022-12-20T09:06:28;27.95;;;15.20;;
31990;SDS011;18508;49.386;8.370;2022-12-20T09:08:59;27.45;;;14.98;;
31990;SDS011;18508;49.386;8.370;2022-12-20T09:11:27;28.15;;;15.70;;
31990;SDS011;18508;49.386;8.370;2022-12-20T09:13:56;32.03;;;16.38;;
31990;SDS011;18508;49.386;8.370;2022-12-20T09:16:25;27.70;;;15.23;;
31990;SDS011;18508;49.386;8.370;2022-12-20T09:18:56;26.70;;;13.30;;
31990;SDS011;18508;49.386;8.370;2022-12-20T09:21:31;26.27;;;14.65;;
31990;SDS011;18508;49.386;8.370;2022-12-20T09:24:01;27.48;;;15.85;;
31990;SDS011;18508;49.386;8.370;2022-12-20T09:26:29;26.20;;;14.27;;
31990;SDS011;18508;49.386;8.370;2022-12-20T09:28:57;25.08;;;14.23;;
31990;SDS011;18508;49.386;8.370;2022-12-20T09:31:27;26.35;;;14.05;;
31990;SDS011;18508;49.386;8.370;2022-12-20T09:33:56;27.38;;;16.25;;
31990;SDS011;18508;49.386;8.370;2022-12-20T09:36:27;28.55;;;14.77;;
31990;SDS011;18508;49.386;8.370;2022-12-20T09:38:56;26.63;;;16.00;;
31990;SDS011;18508;49.386;8.370;2022-12-20T09:41:27;27.55;;;16.38;;
31990;SDS011;18508;49.386;8.370;2022-12-20T09:43:58;28.52;;;15.77;;
31990;SDS011;18508;49.386;8.370;2022-12-20T09:46:30;27.30;;;15.50;;
31990;SDS011;18508;49.386;8.370;2022-12-20T09:48:58;30.35;;;14.13;;
31990;SDS011;18508;49.386;8.370;2022-12-20T09:51:38;24.50;;;12.93;;
31990;SDS011;18508;49.386;8.370;2022-12-20T09:54:19;27.02;;;15.20;;
31990;SDS011;18508;49.386;8.370;2022-12-20T09:56:57;25.25;;;13.45;;
31990;SDS011;18508;49.386;8.370;2022-12-20T09:59:29;24.15;;;13.27;;
31990;SDS011;18508;49.386;8.370;2022-12-20T10:02:07;25.98;;;13.27;;
31990;SDS011;18508;49.386;8.370;2022-12-20T10:04:57;22.45;;;12.25;;
31990;SDS011;18508;49.386;8.370;2022-12-20T10:07:36;29.42;;;13.82;;
31990;SDS011;18508;49.386;8.370;2022-12-20T10:10:18;31.05;;;13.80;;
31990;SDS011;18508;49.386;8.370;2022-12-20T10:13:05;27.90;;;14.15;;
31990;SDS011;18508;49.386;8.370;2022-12-20T10:15:45;24.47;;;14.07;;
31990;SDS011;18508;49.386;8.370;2022-12-20T10:18:33;21.10;;;13.25;;
31990;SDS011;18508;49.386;8.370;2022-12-20T10:21:10;20.50;;;11.98;;
31990;SDS011;18508;49.386;8.370;2022-12-20T10:23:49;21.25;;;12.35;;
31990;SDS011;18508;49.386;8.370;2022-12-20T10:26:28;18.88;;;11.57;;
31990;SDS011;18508;49.386;8.370;2022-12-20T10:28:58;21.63;;;13.15;;
31990;SDS011;18508;49.386;8.370;2022-12-20T10:31:26;22.35;;;11.38;;
31990;SDS011;18508;49.386;8.370;2022-12-20T10:33:54;19.23;;;10.70;;
31990;SDS011;18508;49.386;8.370;2022-12-20T10:36:23;17.20;;;10.30;;
31990;SDS011;18508;49.386;8.370;2022-12-20T10:38:53;17.88;;;9.95;;
31990;SDS011;18508;49.386;8.370;2022-12-20T10:41:23;17.08;;;9.60;;
31990;SDS011;18508;49.386;8.370;2022-12-20T10:43:54;19.08;;;9.73;;
31990;SDS011;18508;49.386;8.370;2022-12-20T10:46:36;19.38;;;9.60;;
31990;SDS011;18508;49.386;8.370;2022-12-20T10:49:20;16.02;;;8.25;;
31990;SDS011;18508;49.386;8.370;2022-12-20T10:51:57;19.95;;;9.63;;
31990;SDS011;18508;49.386;8.370;2022-12-20T10:54:33;17.17;;;9.57;;
31990;SDS011;18508;49.386;8.370;2022-12-20T10:57:13;16.27;;;10.18;;
31990;SDS011;18508;49.386;8.370;2022-12-20T10:59:48;19.73;;;10.43;;
31990;SDS011;18508;49.386;8.370;2022-12-20T11:02:22;20.50;;;10.38;;
31990;SDS011;18508;49.386;8.370;2022-12-20T11:05:15;22.05;;;12.10;;
31990;SDS011;18508;49.386;8.370;2022-12-20T11:07:52;23.95;;;11.50;;
31990;SDS011;18508;49.386;8.370;2022-12-20T11:10:42;28.50;;;13.15;;
31990;SDS011;18508;49.386;8.370;2022-12-20T11:13:18;20.52;;;11.05;;
31990;SDS011;18508;49.386;8.370;2022-12-20T11:15:51;22.73;;;10.98;;
31990;SDS011;18508;49.386;8.370;2022-12-20T11:18:26;24.20;;;12.30;;
31990;SDS011;18508;49.386;8.370;2022-12-20T11:21:05;18.20;;;10.50;;
31990;SDS011;18508;49.386;8.370;2022-12-20T11:23:46;18.50;;;10.15;;
31990;SDS011;18508;49.386;8.370;2022-12-20T11:26:30;20.05;;;11.75;;
31990;SDS011;18508;49.386;8.370;2022-12-20T11:29:15;21.50;;;11.45;;
31990;SDS011;18508;49.386;8.370;2022-12-20T11:31:55;18.65;;;10.50;;
31990;SDS011;18508;49.386;8.370;2022-12-20T11:34:35;20.80;;;10.85;;
31990;SDS011;18508;49.386;8.370;2022-12-20T11:37:17;21.42;;;11.55;;
31990;SDS011;18508;49.386;8.370;2022-12-20T11:39:55;16.42;;;9.32;;
31990;SDS011;18508;49.386;8.370;2022-12-20T11:42:37;16.52;;;8.88;;
31990;SDS011;18508;49.386;8.370;2022-12-20T11:45:18;21.45;;;9.30;;
31990;SDS011;18508;49.386;8.370;2022-12-20T11:48:13;18.33;;;9.43;;
31990;SDS011;18508;49.386;8.370;2022-12-20T11:51:06;22.73;;;11.45;;
31990;SDS011;18508;49.386;8.370;2022-12-20T11:53:44;22.48;;;11.02;;
31990;SDS011;18508;49.386;8.370;2022-12-20T11:56:19;23.55;;;12.00;;
31990;SDS011;18508;49.386;8.370;2022-12-20T11:58:54;22.42;;;11.57;;
31990;SDS011;18508;49.386;8.370;2022-12-20T12:01:28;22.90;;;10.13;;
31990;SDS011;18508;49.386;8.370;2022-12-20T12:04:02;17.30;;;9.32;;
31990;SDS011;18508;49.386;8.370;2022-12-20T12:06:36;16.08;;;9.65;;
31990;SDS011;18508;49.386;8.370;2022-12-20T12:09:10;24.33;;;11.27;;
31990;SDS011;18508;49.386;8.370;2022-12-20T12:11:44;19.42;;;10.60;;
31990;SDS011;18508;49.386;8.370;2022-12-20T12:14:37;17.80;;;9.73;;
31990;SDS011;18508;49.386;8.370;2022-12-20T12:17:15;16.00;;;9.70;;
31990;SDS011;18508;49.386;8.370;2022-12-20T12:19:52;15.70;;;9.18;;
31990;SDS011;18508;49.386;8.370;2022-12-20T12:22:29;15.00;;;9.00;;
31990;SDS011;18508;49.386;8.370;2022-12-20T12:25:03;17.25;;;8.88;;
31990;SDS011;18508;49.386;8.370;2022-12-20T12:27:37;15.80;;;9.07;;
31990;SDS011;18508;49.386;8.370;2022-12-20T12:30:10;16.52;;;9.68;;
31990;SDS011;18508;49.386;8.370;2022-12-20T12:32:40;15.77;;;9.85;;
31990;SDS011;18508;49.386;8.370;2022-12-20T12:35:21;18.88;;;9.23;;
31990;SDS011;18508;49.386;8.370;2022-12-20T12:38:30;17.67;;;9.35;;
31990;SDS011;18508;49.386;8.370;2022-12-20T12:41:28;14.10;;;9.02;;
31990;SDS011;18508;49.386;8.370;2022-12-20T12:44:22;15.13;;;8.95;;
31990;SDS011;18508;49.386;8.370;2022-12-20T12:47:06;15.73;;;8.90;;
31990;SDS011;18508;49.386;8.370;2022-12-20T12:49:40;14.07;;;8.73;;
31990;SDS011;18508;49.386;8.370;2022-12-20T12:55:01;15.15;;;9.23;;
31990;SDS011;18508;49.386;8.370;2022-12-20T12:57:29;13.82;;;9.07;;
31990;SDS011;18508;49.386;8.370;2022-12-20T13:03:33;18.17;;;9.70;;
31990;SDS011;18508;49.386;8.370;2022-12-20T13:09:19;19.05;;;10.60;;
31990;SDS011;18508;49.386;8.370;2022-12-20T13:18:24;22.40;;;10.00;;
31990;SDS011;18508;49.386;8.370;2022-12-20T13:24:01;17.42;;;9.40;;
31990;SDS011;18508;49.386;8.370;2022-12-20T13:26:59;16.27;;;9.32;;
31990;SDS011;18508;49.386;8.370;2022-12-20T13:29:31;15.52;;;9.05;;
31990;SDS011;18508;49.386;8.370;2022-12-20T13:34:37;13.93;;;8.63;;
31990;SDS011;18508;49.386;8.370;2022-12-20T13:37:26;15.80;;;9.38;;
31990;SDS011;18508;49.386;8.370;2022-12-20T13:39:55;14.27;;;9.40;;
31990;SDS011;18508;49.386;8.370;2022-12-20T13:42:29;17.13;;;9.75;;
31990;SDS011;18508;49.386;8.370;2022-12-20T13:45:05;20.70;;;10.60;;
31990;SDS011;18508;49.386;8.370;2022-12-20T13:47:40;17.55;;;10.05;;
31990;SDS011;18508;49.386;8.370;2022-12-20T13:50:23;16.10;;;10.18;;
31990;SDS011;18508;49.386;8.370;2022-12-20T13:52:55;20.98;;;11.32;;
31990;SDS011;18508;49.386;8.370;2022-12-20T13:55:25;19.48;;;10.65;;
31990;SDS011;18508;49.386;8.370;2022-12-20T13:58:04;17.48;;;8.93;;
31990;SDS011;18508;49.386;8.370;2022-12-20T14:00:36;18.67;;;10.32;;
31990;SDS011;18508;49.386;8.370;2022-12-20T14:03:06;18.85;;;9.70;;
31990;SDS011;18508;49.386;8.370;2022-12-20T14:05:45;17.85;;;9.57;;
31990;SDS011;18508;49.386;8.370;2022-12-20T14:08:14;17.52;;;9.95;;
31990;SDS011;18508;49.386;8.370;2022-12-20T14:10:45;14.50;;;9.52;;
31990;SDS011;18508;49.386;8.370;2022-12-20T14:13:19;15.25;;;9.05;;
31990;SDS011;18508;49.386;8.370;2022-12-20T14:15:49;13.57;;;8.32;;
31990;SDS011;18508;49.386;8.370;2022-12-20T14:18:19;15.55;;;8.68;;
31990;SDS011;18508;49.386;8.370;2022-12-20T14:20:50;18.83;;;9.65;;
31990;SDS011;18508;49.386;8.370;2022-12-20T14:23:22;17.13;;;9.65;;
31990;SDS011;18508;49.386;8.370;2022-12-20T14:25:53;16.90;;;8.98;;
31990;SDS011;18508;49.386;8.370;2022-12-20T14:28:28;14.90;;;8.82;;
31990;SDS011;18508;49.386;8.370;2022-12-20T14:31:01;12.32;;;8.38;;
31990;SDS011;18508;49.386;8.370;2022-12-20T14:33:33;15.07;;;8.80;;
31990;SDS011;18508;49.386;8.370;2022-12-20T14:36:09;16.55;;;9.13;;
31990;SDS011;18508;49.386;8.370;2022-12-20T14:38:45;14.00;;;8.65;;
31990;SDS011;18508;49.386;8.370;2022-12-20T14:41:34;13.75;;;8.75;;
31990;SDS011;18508;49.386;8.370;2022-12-20T14:44:12;15.63;;;8.73;;
31990;SDS011;18508;49.386;8.370;2022-12-20T14:46:46;16.13;;;9.02;;
31990;SDS011;18508;49.386;8.370;2022-12-20T14:51:47;16.30;;;8.70;;
31990;SDS011;18508;49.386;8.370;2022-12-20T14:54:16;17.30;;;9.02;;
31990;SDS011;18508;49.386;8.370;2022-12-20T14:57:09;17.05;;;10.40;;
31990;SDS011;18508;49.386;8.370;2022-12-20T14:59:58;19.25;;;10.10;;
31990;SDS011;18508;49.386;8.370;2022-12-20T15:02:32;19.40;;;10.25;;
31990;SDS011;18508;49.386;8.370;2022-12-20T15:05:07;19.13;;;10.02;;
31990;SDS011;18508;49.386;8.370;2022-12-20T15:07:38;15.88;;;9.77;;
31990;SDS011;18508;49.386;8.370;2022-12-20T15:10:07;19.15;;;10.10;;
31990;SDS011;18508;49.386;8.370;2022-12-20T15:12:35;18.10;;;10.63;;
31990;SDS011;18508;49.386;8.370;2022-12-20T15:15:11;16.83;;;10.32;;
31990;SDS011;18508;49.386;8.370;2022-12-20T15:17:54;19.70;;;10.95;;
31990;SDS011;18508;49.386;8.370;2022-12-20T15:20:23;16.33;;;10.25;;
31990;SDS011;18508;49.386;8.370;2022-12-20T15:22:53;16.85;;;10.75;;
31990;SDS011;18508;49.386;8.370;2022-12-20T15:25:22;18.85;;;10.35;;